sensor_id;sensor_type;location;lat;lon;timestamp;P1;durP1;ratioP1;P2;durP2;ratioP2
21099;SDS011;10708;50.824;4.408;2023-05-07T00:02:03;545.08;;;510.13;;
21099;SDS011;10708;50.824;4.408;2023-05-07T00:07:05;197.48;;;186.35;;
21099;SDS011;10708;50.824;4.408;2023-05-07T00:12:08;240.65;;;227.48;;
21099;SDS011;10708;50.824;4.408;2023-05-07T00:17:10;223.85;;;211.73;;
21099;SDS011;10708;50.824;4.408;2023-05-07T00:22:13;209.85;;;198.52;;
21099;SDS011;10708;50.824;4.408;2023-05-07T00:27:16;248.18;;;234.73;;
21099;SDS011;10708;50.824;4.408;2023-05-07T00:32:18;233.38;;;220.55;;
21099;SDS011;10708;50.824;4.408;2023-05-07T00:37:20;158.35;;;149.60;;
21099;SDS011;10708;50.824;4.408;2023-05-07T00:42:23;155.23;;;146.40;;
21099;SDS011;10708;50.824;4.408;2023-05-07T00:47:25;158.88;;;150.30;;
21099;SDS011;10708;50.824;4.408;2023-05-07T00:52:27;145.18;;;137.32;;
21099;SDS011;10708;50.824;4.408;2023-05-07T00:57:33;145.60;;;137.82;;
21099;SDS011;10708;50.824;4.408;2023-05-07T01:02:38;180.88;;;170.77;;
21099;SDS011;10708;50.824;4.408;2023-05-07T01:07:40;118.80;;;112.28;;
21099;SDS011;10708;50.824;4.408;2023-05-07T01:12:45;197.32;;;186.77;;
21099;SDS011;10708;50.824;4.408;2023-05-07T01:17:48;221.65;;;209.25;;
21099;SDS011;10708;50.824;4.408;2023-05-07T01:22:51;186.63;;;176.75;;
21099;SDS011;10708;50.824;4.408;2023-05-07T01:27:54;141.82;;;134.02;;
21099;SDS011;10708;50.824;4.408;2023-05-07T01:32:58;160.68;;;151.68;;
21099;SDS011;10708;50.824;4.408;2023-05-07T01:38:05;126.50;;;119.40;;
21099;SDS011;10708;50.824;4.408;2023-05-07T01:43:08;114.47;;;107.78;;
21099;SDS011;10708;50.824;4.408;2023-05-07T01:48:11;139.10;;;131.48;;
21099;SDS011;10708;50.824;4.408;2023-05-07T01:53:17;123.88;;;116.70;;
21099;SDS011;10708;50.824;4.408;2023-05-07T01:58:19;144.38;;;135.95;;
21099;SDS011;10708;50.824;4.408;2023-05-07T02:03:21;224.25;;;211.93;;
21099;SDS011;10708;50.824;4.408;2023-05-07T02:08:24;186.40;;;176.40;;
21099;SDS011;10708;50.824;4.408;2023-05-07T02:13:28;186.30;;;176.05;;
21099;SDS011;10708;50.824;4.408;2023-05-07T02:18:31;183.68;;;173.80;;
21099;SDS011;10708;50.824;4.408;2023-05-07T02:23:34;164.00;;;155.23;;
21099;SDS011;10708;50.824;4.408;2023-05-07T02:28:37;192.57;;;182.25;;
21099;SDS011;10708;50.824;4.408;2023-05-07T02:33:39;121.15;;;114.45;;
21099;SDS011;10708;50.824;4.408;2023-05-07T02:38:42;215.88;;;203.90;;
21099;SDS011;10708;50.824;4.408;2023-05-07T02:43:44;149.65;;;141.13;;
21099;SDS011;10708;50.824;4.408;2023-05-07T02:48:46;116.70;;;110.15;;
21099;SDS011;10708;50.824;4.408;2023-05-07T02:53:49;116.47;;;109.82;;
21099;SDS011;10708;50.824;4.408;2023-05-07T02:58:51;117.82;;;111.15;;
21099;SDS011;10708;50.824;4.408;2023-05-07T03:03:53;104.95;;;98.97;;
21099;SDS011;10708;50.824;4.408;2023-05-07T03:08:57;104.88;;;99.10;;
21099;SDS011;10708;50.824;4.408;2023-05-07T03:13:59;173.60;;;163.85;;
21099;SDS011;10708;50.824;4.408;2023-05-07T03:19:00;239.82;;;225.10;;
21099;SDS011;10708;50.824;4.408;2023-05-07T03:24:04;123.68;;;116.60;;
21099;SDS011;10708;50.824;4.408;2023-05-07T03:29:07;219.10;;;205.60;;
21099;SDS011;10708;50.824;4.408;2023-05-07T03:34:09;138.07;;;130.02;;
21099;SDS011;10708;50.824;4.408;2023-05-07T03:39:13;35.10;;;32.90;;
21099;SDS011;10708;50.824;4.408;2023-05-07T03:44:15;67.88;;;63.60;;
21099;SDS011;10708;50.824;4.408;2023-05-07T03:49:17;118.22;;;111.30;;
21099;SDS011;10708;50.824;4.408;2023-05-07T03:54:20;115.65;;;109.05;;
21099;SDS011;10708;50.824;4.408;2023-05-07T03:59:22;271.80;;;254.05;;
21099;SDS011;10708;50.824;4.408;2023-05-07T04:04:24;219.48;;;207.07;;
21099;SDS011;10708;50.824;4.408;2023-05-07T04:09:27;74.18;;;69.70;;
21099;SDS011;10708;50.824;4.408;2023-05-07T04:14:29;98.70;;;92.88;;
21099;SDS011;10708;50.824;4.408;2023-05-07T04:19:33;100.03;;;94.13;;
21099;SDS011;10708;50.824;4.408;2023-05-07T04:24:36;113.03;;;106.32;;
21099;SDS011;10708;50.824;4.408;2023-05-07T04:29:38;88.75;;;83.82;;
21099;SDS011;10708;50.824;4.408;2023-05-07T04:34:42;95.90;;;90.20;;
21099;SDS011;10708;50.824;4.408;2023-05-07T04:39:45;58.95;;;55.22;;
21099;SDS011;10708;50.824;4.408;2023-05-07T04:44:47;183.73;;;173.35;;
21099;SDS011;10708;50.824;4.408;2023-05-07T04:49:54;125.00;;;118.05;;
21099;SDS011;10708;50.824;4.408;2023-05-07T04:54:58;172.82;;;162.63;;
21099;SDS011;10708;50.824;4.408;2023-05-07T05:00:01;162.70;;;153.80;;
21099;SDS011;10708;50.824;4.408;2023-05-07T05:05:04;189.70;;;178.85;;
21099;SDS011;10708;50.824;4.408;2023-05-07T05:10:09;114.88;;;108.45;;
21099;SDS011;10708;50.824;4.408;2023-05-07T05:15:11;81.07;;;76.45;;
21099;SDS011;10708;50.824;4.408;2023-05-07T05:20:13;111.22;;;105.22;;
21099;SDS011;10708;50.824;4.408;2023-05-07T05:25:17;154.52;;;145.88;;
21099;SDS011;10708;50.824;4.408;2023-05-07T05:30:19;146.32;;;138.30;;
21099;SDS011;10708;50.824;4.408;2023-05-07T05:35:21;113.85;;;107.80;;
21099;SDS011;10708;50.824;4.408;2023-05-07T05:40:24;98.55;;;92.75;;
21099;SDS011;10708;50.824;4.408;2023-05-07T05:45:26;106.35;;;100.43;;
21099;SDS011;10708;50.824;4.408;2023-05-07T05:50:28;272.15;;;256.48;;
21099;SDS011;10708;50.824;4.408;2023-05-07T05:55:31;157.02;;;148.50;;
21099;SDS011;10708;50.824;4.408;2023-05-07T06:00:33;178.00;;;168.65;;
21099;SDS011;10708;50.824;4.408;2023-05-07T06:05:42;333.83;;;315.55;;
21099;SDS011;10708;50.824;4.408;2023-05-07T06:10:45;352.92;;;333.73;;
21099;SDS011;10708;50.824;4.408;2023-05-07T06:15:48;308.10;;;291.35;;
21099;SDS011;10708;50.824;4.408;2023-05-07T06:20:51;307.27;;;290.65;;
21099;SDS011;10708;50.824;4.408;2023-05-07T06:25:54;437.25;;;411.85;;
21099;SDS011;10708;50.824;4.408;2023-05-07T06:31:10;314.55;;;297.02;;
21099;SDS011;10708;50.824;4.408;2023-05-07T06:36:13;338.33;;;319.85;;
21099;SDS011;10708;50.824;4.408;2023-05-07T06:41:18;227.90;;;215.30;;
21099;SDS011;10708;50.824;4.408;2023-05-07T06:51:40;328.10;;;310.77;;
21099;SDS011;10708;50.824;4.408;2023-05-07T06:56:44;165.95;;;156.77;;
21099;SDS011;10708;50.824;4.408;2023-05-07T07:01:46;286.10;;;270.80;;
21099;SDS011;10708;50.824;4.408;2023-05-07T07:06:48;285.60;;;267.67;;
21099;SDS011;10708;50.824;4.408;2023-05-07T07:11:52;188.82;;;177.93;;
21099;SDS011;10708;50.824;4.408;2023-05-07T07:16:57;146.02;;;138.07;;
21099;SDS011;10708;50.824;4.408;2023-05-07T07:21:59;126.18;;;119.10;;
21099;SDS011;10708;50.824;4.408;2023-05-07T07:27:03;152.63;;;143.98;;
21099;SDS011;10708;50.824;4.408;2023-05-07T07:32:05;127.40;;;120.07;;
21099;SDS011;10708;50.824;4.408;2023-05-07T07:37:07;104.45;;;98.20;;
21099;SDS011;10708;50.824;4.408;2023-05-07T07:42:11;115.65;;;109.05;;
21099;SDS011;10708;50.824;4.408;2023-05-07T07:47:13;91.30;;;85.97;;
21099;SDS011;10708;50.824;4.408;2023-05-07T07:52:15;161.80;;;152.43;;
21099;SDS011;10708;50.824;4.408;2023-05-07T07:57:18;83.28;;;77.90;;
21099;SDS011;10708;50.824;4.408;2023-05-07T08:02:20;136.77;;;128.98;;
21099;SDS011;10708;50.824;4.408;2023-05-07T08:07:22;142.73;;;134.85;;
21099;SDS011;10708;50.824;4.408;2023-05-07T08:12:25;123.85;;;116.63;;
21099;SDS011;10708;50.824;4.408;2023-05-07T08:17:28;126.85;;;119.78;;
21099;SDS011;10708;50.824;4.408;2023-05-07T08:22:30;258.52;;;244.25;;
21099;SDS011;10708;50.824;4.408;2023-05-07T08:27:33;252.25;;;236.95;;
21099;SDS011;10708;50.824;4.408;2023-05-07T08:32:35;271.48;;;255.32;;
21099;SDS011;10708;50.824;4.408;2023-05-07T08:37:38;227.27;;;214.88;;
21099;SDS011;10708;50.824;4.408;2023-05-07T08:42:41;128.68;;;121.20;;
21099;SDS011;10708;50.824;4.408;2023-05-07T08:47:56;242.85;;;229.43;;
21099;SDS011;10708;50.824;4.408;2023-05-07T08:53:02;182.00;;;171.68;;
21099;SDS011;10708;50.824;4.408;2023-05-07T08:58:11;188.95;;;178.38;;
21099;SDS011;10708;50.824;4.408;2023-05-07T09:03:14;273.60;;;257.60;;
21099;SDS011;10708;50.824;4.408;2023-05-07T09:08:16;249.13;;;234.10;;
21099;SDS011;10708;50.824;4.408;2023-05-07T09:13:20;180.73;;;170.50;;
21099;SDS011;10708;50.824;4.408;2023-05-07T09:18:25;220.35;;;207.65;;
21099;SDS011;10708;50.824;4.408;2023-05-07T09:23:28;195.18;;;183.98;;
21099;SDS011;10708;50.824;4.408;2023-05-07T09:28:31;180.88;;;170.48;;
21099;SDS011;10708;50.824;4.408;2023-05-07T09:33:34;248.70;;;233.52;;
21099;SDS011;10708;50.824;4.408;2023-05-07T09:38:37;355.27;;;333.30;;
21099;SDS011;10708;50.824;4.408;2023-05-07T09:43:41;217.40;;;204.43;;
21099;SDS011;10708;50.824;4.408;2023-05-07T09:48:44;369.05;;;345.23;;
21099;SDS011;10708;50.824;4.408;2023-05-07T09:53:47;189.70;;;178.63;;
21099;SDS011;10708;50.824;4.408;2023-05-07T09:58:51;282.05;;;265.13;;
21099;SDS011;10708;50.824;4.408;2023-05-07T10:03:55;302.55;;;284.80;;
21099;SDS011;10708;50.824;4.408;2023-05-07T10:08:58;352.02;;;331.42;;
21099;SDS011;10708;50.824;4.408;2023-05-07T10:14:02;295.40;;;278.27;;
21099;SDS011;10708;50.824;4.408;2023-05-07T10:19:06;278.85;;;263.20;;
21099;SDS011;10708;50.824;4.408;2023-05-07T10:24:10;290.90;;;274.45;;
21099;SDS011;10708;50.824;4.408;2023-05-07T10:29:21;240.38;;;226.98;;
21099;SDS011;10708;50.824;4.408;2023-05-07T10:34:35;265.30;;;250.13;;
21099;SDS011;10708;50.824;4.408;2023-05-07T10:39:41;329.65;;;310.15;;
21099;SDS011;10708;50.824;4.408;2023-05-07T10:44:45;310.98;;;291.05;;
21099;SDS011;10708;50.824;4.408;2023-05-07T10:55:26;296.17;;;279.02;;
21099;SDS011;10708;50.824;4.408;2023-05-07T11:00:44;346.73;;;326.02;;
21099;SDS011;10708;50.824;4.408;2023-05-07T11:05:46;316.38;;;297.80;;
21099;SDS011;10708;50.824;4.408;2023-05-07T11:10:52;404.73;;;378.90;;
21099;SDS011;10708;50.824;4.408;2023-05-07T11:15:57;371.27;;;348.55;;
21099;SDS011;10708;50.824;4.408;2023-05-07T11:20:59;345.70;;;325.15;;
21099;SDS011;10708;50.824;4.408;2023-05-07T11:26:02;350.63;;;329.90;;
21099;SDS011;10708;50.824;4.408;2023-05-07T11:31:07;371.25;;;349.17;;
21099;SDS011;10708;50.824;4.408;2023-05-07T11:36:09;388.60;;;364.77;;
21099;SDS011;10708;50.824;4.408;2023-05-07T11:41:12;363.23;;;342.60;;
21099;SDS011;10708;50.824;4.408;2023-05-07T11:46:16;359.45;;;338.80;;
21099;SDS011;10708;50.824;4.408;2023-05-07T11:51:19;352.27;;;331.80;;
21099;SDS011;10708;50.824;4.408;2023-05-07T11:56:22;409.02;;;384.80;;
21099;SDS011;10708;50.824;4.408;2023-05-07T12:01:26;446.90;;;417.20;;
21099;SDS011;10708;50.824;4.408;2023-05-07T12:06:28;471.50;;;442.35;;
21099;SDS011;10708;50.824;4.408;2023-05-07T12:11:31;487.40;;;453.25;;
21099;SDS011;10708;50.824;4.408;2023-05-07T12:16:34;631.15;;;577.30;;
21099;SDS011;10708;50.824;4.408;2023-05-07T12:21:37;556.13;;;517.03;;
21099;SDS011;10708;50.824;4.408;2023-05-07T12:26:39;610.55;;;557.42;;
21099;SDS011;10708;50.824;4.408;2023-05-07T12:31:43;651.20;;;600.38;;
21099;SDS011;10708;50.824;4.408;2023-05-07T12:36:45;434.52;;;405.35;;
21099;SDS011;10708;50.824;4.408;2023-05-07T12:41:52;570.33;;;519.08;;
21099;SDS011;10708;50.824;4.408;2023-05-07T12:46:56;556.80;;;512.05;;
21099;SDS011;10708;50.824;4.408;2023-05-07T12:52:00;643.70;;;587.03;;
21099;SDS011;10708;50.824;4.408;2023-05-07T12:57:03;567.40;;;525.53;;
21099;SDS011;10708;50.824;4.408;2023-05-07T13:02:07;699.92;;;632.45;;
21099;SDS011;10708;50.824;4.408;2023-05-07T13:07:10;565.63;;;523.15;;
21099;SDS011;10708;50.824;4.408;2023-05-07T13:12:12;494.70;;;457.02;;
21099;SDS011;10708;50.824;4.408;2023-05-07T13:17:16;590.90;;;544.60;;
21099;SDS011;10708;50.824;4.408;2023-05-07T13:22:21;477.65;;;444.90;;
21099;SDS011;10708;50.824;4.408;2023-05-07T13:27:23;475.45;;;436.60;;
21099;SDS011;10708;50.824;4.408;2023-05-07T13:32:27;426.02;;;390.80;;
21099;SDS011;10708;50.824;4.408;2023-05-07T13:37:30;446.83;;;410.50;;
21099;SDS011;10708;50.824;4.408;2023-05-07T13:42:32;548.53;;;499.80;;
21099;SDS011;10708;50.824;4.408;2023-05-07T13:47:35;563.78;;;516.60;;
21099;SDS011;10708;50.824;4.408;2023-05-07T13:52:38;461.60;;;426.40;;
21099;SDS011;10708;50.824;4.408;2023-05-07T13:57:40;477.10;;;443.48;;
21099;SDS011;10708;50.824;4.408;2023-05-07T14:02:44;420.13;;;389.27;;
21099;SDS011;10708;50.824;4.408;2023-05-07T14:07:46;526.85;;;482.55;;
21099;SDS011;10708;50.824;4.408;2023-05-07T14:12:49;438.58;;;403.38;;
21099;SDS011;10708;50.824;4.408;2023-05-07T14:17:54;389.30;;;363.10;;
21099;SDS011;10708;50.824;4.408;2023-05-07T14:22:58;535.22;;;491.50;;
21099;SDS011;10708;50.824;4.408;2023-05-07T14:28:00;475.05;;;441.98;;
21099;SDS011;10708;50.824;4.408;2023-05-07T14:33:04;453.83;;;419.05;;
21099;SDS011;10708;50.824;4.408;2023-05-07T14:38:06;496.70;;;456.85;;
21099;SDS011;10708;50.824;4.408;2023-05-07T14:43:08;349.90;;;325.95;;
21099;SDS011;10708;50.824;4.408;2023-05-07T14:48:11;386.17;;;360.50;;
21099;SDS011;10708;50.824;4.408;2023-05-07T14:53:15;365.65;;;341.90;;
21099;SDS011;10708;50.824;4.408;2023-05-07T14:58:17;454.20;;;424.08;;
21099;SDS011;10708;50.824;4.408;2023-05-07T15:03:21;438.52;;;408.02;;
21099;SDS011;10708;50.824;4.408;2023-05-07T15:08:23;651.15;;;597.78;;
21099;SDS011;10708;50.824;4.408;2023-05-07T15:13:25;479.27;;;444.13;;
21099;SDS011;10708;50.824;4.408;2023-05-07T15:18:29;401.15;;;372.45;;
21099;SDS011;10708;50.824;4.408;2023-05-07T15:23:31;419.05;;;389.48;;
21099;SDS011;10708;50.824;4.408;2023-05-07T15:28:33;455.73;;;422.70;;
21099;SDS011;10708;50.824;4.408;2023-05-07T15:33:37;446.55;;;412.95;;
21099;SDS011;10708;50.824;4.408;2023-05-07T15:38:41;534.92;;;491.20;;
21099;SDS011;10708;50.824;4.408;2023-05-07T15:43:44;527.28;;;483.65;;
21099;SDS011;10708;50.824;4.408;2023-05-07T15:48:49;561.55;;;511.40;;
21099;SDS011;10708;50.824;4.408;2023-05-07T15:53:52;544.92;;;499.88;;
21099;SDS011;10708;50.824;4.408;2023-05-07T15:58:54;543.83;;;493.02;;
21099;SDS011;10708;50.824;4.408;2023-05-07T16:04:00;490.15;;;449.67;;
21099;SDS011;10708;50.824;4.408;2023-05-07T16:09:03;505.83;;;466.15;;
21099;SDS011;10708;50.824;4.408;2023-05-07T16:14:09;392.23;;;363.77;;
21099;SDS011;10708;50.824;4.408;2023-05-07T16:19:13;373.17;;;345.90;;
21099;SDS011;10708;50.824;4.408;2023-05-07T16:24:15;473.35;;;434.40;;
21099;SDS011;10708;50.824;4.408;2023-05-07T16:29:17;466.98;;;429.65;;
21099;SDS011;10708;50.824;4.408;2023-05-07T16:34:21;393.65;;;366.52;;
21099;SDS011;10708;50.824;4.408;2023-05-07T16:39:26;462.63;;;430.98;;
21099;SDS011;10708;50.824;4.408;2023-05-07T16:44:29;486.90;;;453.25;;
21099;SDS011;10708;50.824;4.408;2023-05-07T16:49:32;535.03;;;498.00;;
21099;SDS011;10708;50.824;4.408;2023-05-07T16:54:34;468.13;;;434.42;;
21099;SDS011;10708;50.824;4.408;2023-05-07T16:59:37;406.40;;;380.77;;
21099;SDS011;10708;50.824;4.408;2023-05-07T17:04:40;356.88;;;334.55;;
21099;SDS011;10708;50.824;4.408;2023-05-07T17:09:42;565.97;;;525.97;;
21099;SDS011;10708;50.824;4.408;2023-05-07T17:14:44;461.23;;;428.40;;
21099;SDS011;10708;50.824;4.408;2023-05-07T17:19:51;508.55;;;472.73;;
21099;SDS011;10708;50.824;4.408;2023-05-07T17:24:54;528.42;;;492.10;;
21099;SDS011;10708;50.824;4.408;2023-05-07T17:29:56;401.20;;;376.63;;
21099;SDS011;10708;50.824;4.408;2023-05-07T17:34:59;440.73;;;410.77;;
21099;SDS011;10708;50.824;4.408;2023-05-07T17:40:05;503.30;;;466.85;;
21099;SDS011;10708;50.824;4.408;2023-05-07T17:45:09;480.92;;;448.30;;
21099;SDS011;10708;50.824;4.408;2023-05-07T17:50:13;487.70;;;455.73;;
21099;SDS011;10708;50.824;4.408;2023-05-07T17:55:16;496.60;;;466.45;;
21099;SDS011;10708;50.824;4.408;2023-05-07T18:00:19;467.48;;;435.65;;
21099;SDS011;10708;50.824;4.408;2023-05-07T18:05:23;459.65;;;429.45;;
21099;SDS011;10708;50.824;4.408;2023-05-07T18:10:25;546.00;;;506.98;;
21099;SDS011;10708;50.824;4.408;2023-05-07T18:15:27;538.85;;;498.15;;
21099;SDS011;10708;50.824;4.408;2023-05-07T18:20:31;479.80;;;449.20;;
21099;SDS011;10708;50.824;4.408;2023-05-07T18:25:33;480.55;;;449.80;;
21099;SDS011;10708;50.824;4.408;2023-05-07T18:30:36;418.33;;;391.20;;
21099;SDS011;10708;50.824;4.408;2023-05-07T18:35:39;410.45;;;385.08;;
21099;SDS011;10708;50.824;4.408;2023-05-07T18:40:41;464.92;;;434.73;;
21099;SDS011;10708;50.824;4.408;2023-05-07T18:45:47;428.75;;;399.95;;
21099;SDS011;10708;50.824;4.408;2023-05-07T18:50:54;263.88;;;248.30;;
21099;SDS011;10708;50.824;4.408;2023-05-07T18:55:57;277.52;;;260.48;;
21099;SDS011;10708;50.824;4.408;2023-05-07T19:01:01;391.10;;;366.83;;
21099;SDS011;10708;50.824;4.408;2023-05-07T19:06:08;365.98;;;343.40;;
21099;SDS011;10708;50.824;4.408;2023-05-07T19:11:10;344.52;;;324.42;;
21099;SDS011;10708;50.824;4.408;2023-05-07T19:16:12;303.75;;;286.13;;
21099;SDS011;10708;50.824;4.408;2023-05-07T19:21:16;275.10;;;259.58;;
21099;SDS011;10708;50.824;4.408;2023-05-07T19:26:18;348.85;;;328.42;;
21099;SDS011;10708;50.824;4.408;2023-05-07T19:31:21;354.88;;;333.98;;
21099;SDS011;10708;50.824;4.408;2023-05-07T19:36:27;403.45;;;378.40;;
21099;SDS011;10708;50.824;4.408;2023-05-07T19:41:32;444.20;;;413.92;;
21099;SDS011;10708;50.824;4.408;2023-05-07T19:46:34;390.23;;;365.17;;
21099;SDS011;10708;50.824;4.408;2023-05-07T19:51:40;471.23;;;441.15;;
21099;SDS011;10708;50.824;4.408;2023-05-07T19:56:42;379.55;;;356.83;;
21099;SDS011;10708;50.824;4.408;2023-05-07T20:01:44;377.42;;;352.98;;
21099;SDS011;10708;50.824;4.408;2023-05-07T20:06:48;343.02;;;322.58;;
21099;SDS011;10708;50.824;4.408;2023-05-07T20:11:50;454.05;;;425.70;;
21099;SDS011;10708;50.824;4.408;2023-05-07T20:16:52;264.25;;;249.40;;
21099;SDS011;10708;50.824;4.408;2023-05-07T20:21:56;422.50;;;395.65;;
21099;SDS011;10708;50.824;4.408;2023-05-07T20:26:58;373.17;;;350.98;;
21099;SDS011;10708;50.824;4.408;2023-05-07T20:32:00;439.83;;;410.85;;
21099;SDS011;10708;50.824;4.408;2023-05-07T20:37:04;386.15;;;360.75;;
21099;SDS011;10708;50.824;4.408;2023-05-07T20:42:06;356.45;;;335.90;;
21099;SDS011;10708;50.824;4.408;2023-05-07T20:47:08;399.20;;;374.58;;
21099;SDS011;10708;50.824;4.408;2023-05-07T20:52:12;365.23;;;343.23;;
21099;SDS011;10708;50.824;4.408;2023-05-07T20:57:14;335.15;;;316.00;;
21099;SDS011;10708;50.824;4.408;2023-05-07T21:02:18;414.20;;;388.50;;
21099;SDS011;10708;50.824;4.408;2023-05-07T21:07:21;388.98;;;366.27;;
21099;SDS011;10708;50.824;4.408;2023-05-07T21:12:23;323.73;;;304.48;;
21099;SDS011;10708;50.824;4.408;2023-05-07T21:17:25;367.33;;;343.83;;
21099;SDS011;10708;50.824;4.408;2023-05-07T21:22:32;360.10;;;339.00;;
21099;SDS011;10708;50.824;4.408;2023-05-07T21:27:34;459.80;;;428.40;;
21099;SDS011;10708;50.824;4.408;2023-05-07T21:32:36;429.20;;;401.33;;
21099;SDS011;10708;50.824;4.408;2023-05-07T21:37:39;480.92;;;447.80;;
21099;SDS011;10708;50.824;4.408;2023-05-07T21:42:41;412.75;;;385.25;;
21099;SDS011;10708;50.824;4.408;2023-05-07T21:47:43;298.48;;;280.17;;
21099;SDS011;10708;50.824;4.408;2023-05-07T21:52:47;377.00;;;353.38;;
21099;SDS011;10708;50.824;4.408;2023-05-07T21:57:49;407.30;;;380.65;;
21099;SDS011;10708;50.824;4.408;2023-05-07T22:02:51;424.25;;;396.77;;
21099;SDS011;10708;50.824;4.408;2023-05-07T22:07:54;387.10;;;362.15;;
21099;SDS011;10708;50.824;4.408;2023-05-07T22:12:56;432.08;;;403.10;;
21099;SDS011;10708;50.824;4.408;2023-05-07T22:17:58;430.88;;;402.40;;
21099;SDS011;10708;50.824;4.408;2023-05-07T22:23:02;404.73;;;378.38;;
21099;SDS011;10708;50.824;4.408;2023-05-07T22:28:04;423.88;;;395.42;;
21099;SDS011;10708;50.824;4.408;2023-05-07T22:33:06;51.08;;;47.47;;
21099;SDS011;10708;50.824;4.408;2023-05-07T22:38:09;349.85;;;328.25;;
21099;SDS011;10708;50.824;4.408;2023-05-07T22:43:11;422.48;;;393.67;;
21099;SDS011;10708;50.824;4.408;2023-05-07T22:48:13;388.70;;;364.27;;
21099;SDS011;10708;50.824;4.408;2023-05-07T22:53:16;422.50;;;394.38;;
21099;SDS011;10708;50.824;4.408;2023-05-07T22:58:19;341.30;;;316.95;;
21099;SDS011;10708;50.824;4.408;2023-05-07T23:03:21;374.38;;;350.92;;
21099;SDS011;10708;50.824;4.408;2023-05-07T23:08:24;352.35;;;328.70;;
21099;SDS011;10708;50.824;4.408;2023-05-07T23:13:26;345.13;;;322.63;;
21099;SDS011;10708;50.824;4.408;2023-05-07T23:18:28;290.63;;;271.17;;
21099;SDS011;10708;50.824;4.408;2023-05-07T23:23:34;298.90;;;280.63;;
21099;SDS011;10708;50.824;4.408;2023-05-07T23:28:36;250.02;;;234.40;;
21099;SDS011;10708;50.824;4.408;2023-05-07T23:33:37;242.70;;;227.23;;
21099;SDS011;10708;50.824;4.408;2023-05-07T23:38:41;158.32;;;148.07;;
21099;SDS011;10708;50.824;4.408;2023-05-07T23:43:43;344.27;;;320.23;;
21099;SDS011;10708;50.824;4.408;2023-05-07T23:48:45;212.80;;;198.88;;
21099;SDS011;10708;50.824;4.408;2023-05-07T23:53:48;325.90;;;304.27;;
21099;SDS011;10708;50.824;4.408;2023-05-07T23:58:50;264.10;;;247.45;;
